sensor_id;sensor_type;location;lat;lon;timestamp;P1;durP1;ratioP1;P2;durP2;ratioP2
10347;SDS011;5220;43.192;23.284;2024-03-07T00:01:38;43.20;;;24.98;;
10347;SDS011;5220;43.192;23.284;2024-03-07T00:04:06;36.08;;;23.67;;
10347;SDS011;5220;43.192;23.284;2024-03-07T00:06:33;32.58;;;23.15;;
10347;SDS011;5220;43.192;23.284;2024-03-07T00:09:00;32.65;;;22.67;;
10347;SDS011;5220;43.192;23.284;2024-03-07T00:11:27;36.47;;;24.45;;
10347;SDS011;5220;43.192;23.284;2024-03-07T00:13:55;32.45;;;23.23;;
10347;SDS011;5220;43.192;23.284;2024-03-07T00:16:22;35.75;;;23.30;;
10347;SDS011;5220;43.192;23.284;2024-03-07T00:18:49;39.33;;;25.45;;
10347;SDS011;5220;43.192;23.284;2024-03-07T00:21:17;36.72;;;25.58;;
10347;SDS011;5220;43.192;23.284;2024-03-07T00:23:43;34.05;;;23.92;;
10347;SDS011;5220;43.192;23.284;2024-03-07T00:26:10;37.95;;;24.45;;
10347;SDS011;5220;43.192;23.284;2024-03-07T00:28:36;38.05;;;24.48;;
10347;SDS011;5220;43.192;23.284;2024-03-07T00:31:04;39.22;;;25.13;;
10347;SDS011;5220;43.192;23.284;2024-03-07T00:33:33;33.03;;;23.50;;
10347;SDS011;5220;43.192;23.284;2024-03-07T00:35:59;34.58;;;22.42;;
10347;SDS011;5220;43.192;23.284;2024-03-07T00:38:27;36.08;;;24.33;;
10347;SDS011;5220;43.192;23.284;2024-03-07T00:40:54;33.55;;;23.95;;
10347;SDS011;5220;43.192;23.284;2024-03-07T00:43:21;33.08;;;22.83;;
10347;SDS011;5220;43.192;23.284;2024-03-07T00:45:47;31.48;;;21.85;;
10347;SDS011;5220;43.192;23.284;2024-03-07T00:48:15;30.65;;;21.15;;
10347;SDS011;5220;43.192;23.284;2024-03-07T00:50:41;28.38;;;21.02;;
10347;SDS011;5220;43.192;23.284;2024-03-07T00:53:08;26.42;;;19.80;;
10347;SDS011;5220;43.192;23.284;2024-03-07T00:55:36;28.33;;;20.45;;
10347;SDS011;5220;43.192;23.284;2024-03-07T00:58:03;32.40;;;20.77;;
10347;SDS011;5220;43.192;23.284;2024-03-07T01:00:30;26.98;;;19.92;;
10347;SDS011;5220;43.192;23.284;2024-03-07T01:02:57;30.15;;;20.17;;
10347;SDS011;5220;43.192;23.284;2024-03-07T01:05:24;29.00;;;21.15;;
10347;SDS011;5220;43.192;23.284;2024-03-07T01:07:50;27.63;;;21.65;;
10347;SDS011;5220;43.192;23.284;2024-03-07T01:10:18;29.40;;;20.85;;
10347;SDS011;5220;43.192;23.284;2024-03-07T01:12:46;29.77;;;21.98;;
10347;SDS011;5220;43.192;23.284;2024-03-07T01:15:15;26.95;;;21.17;;
10347;SDS011;5220;43.192;23.284;2024-03-07T01:17:41;27.92;;;20.48;;
10347;SDS011;5220;43.192;23.284;2024-03-07T01:20:10;29.40;;;20.60;;
10347;SDS011;5220;43.192;23.284;2024-03-07T01:22:37;25.15;;;20.17;;
10347;SDS011;5220;43.192;23.284;2024-03-07T01:25:05;27.58;;;20.80;;
10347;SDS011;5220;43.192;23.284;2024-03-07T01:27:32;30.80;;;22.48;;
10347;SDS011;5220;43.192;23.284;2024-03-07T01:30:00;27.02;;;21.80;;
10347;SDS011;5220;43.192;23.284;2024-03-07T01:32:28;29.77;;;22.45;;
10347;SDS011;5220;43.192;23.284;2024-03-07T01:34:55;32.20;;;21.83;;
10347;SDS011;5220;43.192;23.284;2024-03-07T01:37:22;29.10;;;20.17;;
10347;SDS011;5220;43.192;23.284;2024-03-07T01:39:48;27.48;;;20.58;;
10347;SDS011;5220;43.192;23.284;2024-03-07T01:42:15;26.80;;;19.90;;
10347;SDS011;5220;43.192;23.284;2024-03-07T01:44:42;28.45;;;21.05;;
10347;SDS011;5220;43.192;23.284;2024-03-07T01:47:10;29.35;;;20.33;;
10347;SDS011;5220;43.192;23.284;2024-03-07T01:49:37;27.92;;;20.67;;
10347;SDS011;5220;43.192;23.284;2024-03-07T01:52:04;26.92;;;20.05;;
10347;SDS011;5220;43.192;23.284;2024-03-07T01:54:32;24.00;;;18.67;;
10347;SDS011;5220;43.192;23.284;2024-03-07T01:56:59;28.10;;;19.05;;
10347;SDS011;5220;43.192;23.284;2024-03-07T01:59:28;24.27;;;18.58;;
10347;SDS011;5220;43.192;23.284;2024-03-07T02:01:57;23.00;;;19.33;;
10347;SDS011;5220;43.192;23.284;2024-03-07T02:04:27;27.73;;;20.10;;
10347;SDS011;5220;43.192;23.284;2024-03-07T02:06:54;24.77;;;19.38;;
10347;SDS011;5220;43.192;23.284;2024-03-07T02:09:22;28.65;;;20.92;;
10347;SDS011;5220;43.192;23.284;2024-03-07T02:11:48;27.08;;;19.48;;
10347;SDS011;5220;43.192;23.284;2024-03-07T02:14:15;26.23;;;19.50;;
10347;SDS011;5220;43.192;23.284;2024-03-07T02:16:42;27.25;;;19.23;;
10347;SDS011;5220;43.192;23.284;2024-03-07T02:19:09;24.00;;;18.05;;
10347;SDS011;5220;43.192;23.284;2024-03-07T02:21:41;27.02;;;20.52;;
10347;SDS011;5220;43.192;23.284;2024-03-07T02:24:08;27.48;;;19.33;;
10347;SDS011;5220;43.192;23.284;2024-03-07T02:26:34;25.88;;;20.20;;
10347;SDS011;5220;43.192;23.284;2024-03-07T02:29:01;28.08;;;20.58;;
10347;SDS011;5220;43.192;23.284;2024-03-07T02:31:29;25.92;;;19.55;;
10347;SDS011;5220;43.192;23.284;2024-03-07T02:34:02;26.52;;;19.60;;
10347;SDS011;5220;43.192;23.284;2024-03-07T02:36:29;26.25;;;19.13;;
10347;SDS011;5220;43.192;23.284;2024-03-07T02:38:57;26.80;;;19.45;;
10347;SDS011;5220;43.192;23.284;2024-03-07T02:41:24;25.70;;;18.90;;
10347;SDS011;5220;43.192;23.284;2024-03-07T02:43:51;27.45;;;19.95;;
10347;SDS011;5220;43.192;23.284;2024-03-07T02:46:18;28.58;;;19.95;;
10347;SDS011;5220;43.192;23.284;2024-03-07T02:48:45;26.52;;;20.20;;
10347;SDS011;5220;43.192;23.284;2024-03-07T02:51:12;28.17;;;20.02;;
10347;SDS011;5220;43.192;23.284;2024-03-07T02:53:39;24.40;;;18.67;;
10347;SDS011;5220;43.192;23.284;2024-03-07T02:56:07;30.42;;;20.08;;
10347;SDS011;5220;43.192;23.284;2024-03-07T02:58:34;24.10;;;19.40;;
10347;SDS011;5220;43.192;23.284;2024-03-07T03:01:01;25.27;;;19.73;;
10347;SDS011;5220;43.192;23.284;2024-03-07T03:03:29;24.92;;;19.00;;
10347;SDS011;5220;43.192;23.284;2024-03-07T03:05:57;26.10;;;20.50;;
10347;SDS011;5220;43.192;23.284;2024-03-07T03:08:24;24.80;;;18.02;;
10347;SDS011;5220;43.192;23.284;2024-03-07T03:10:52;26.08;;;18.75;;
10347;SDS011;5220;43.192;23.284;2024-03-07T03:13:20;25.35;;;18.02;;
10347;SDS011;5220;43.192;23.284;2024-03-07T03:15:47;24.77;;;18.30;;
10347;SDS011;5220;43.192;23.284;2024-03-07T03:18:14;28.08;;;20.05;;
10347;SDS011;5220;43.192;23.284;2024-03-07T03:20:41;22.63;;;18.25;;
10347;SDS011;5220;43.192;23.284;2024-03-07T03:23:09;24.98;;;18.80;;
10347;SDS011;5220;43.192;23.284;2024-03-07T03:25:38;26.48;;;19.20;;
10347;SDS011;5220;43.192;23.284;2024-03-07T03:28:05;24.75;;;18.65;;
10347;SDS011;5220;43.192;23.284;2024-03-07T03:30:36;24.63;;;18.48;;
10347;SDS011;5220;43.192;23.284;2024-03-07T03:33:03;29.88;;;20.65;;
10347;SDS011;5220;43.192;23.284;2024-03-07T03:35:30;32.75;;;24.23;;
10347;SDS011;5220;43.192;23.284;2024-03-07T03:37:57;33.80;;;25.55;;
10347;SDS011;5220;43.192;23.284;2024-03-07T03:40:25;30.92;;;24.10;;
10347;SDS011;5220;43.192;23.284;2024-03-07T03:42:52;31.00;;;23.25;;
10347;SDS011;5220;43.192;23.284;2024-03-07T03:45:18;33.97;;;25.23;;
10347;SDS011;5220;43.192;23.284;2024-03-07T03:47:47;39.63;;;27.42;;
10347;SDS011;5220;43.192;23.284;2024-03-07T03:50:14;32.75;;;24.92;;
10347;SDS011;5220;43.192;23.284;2024-03-07T03:52:41;35.85;;;26.00;;
10347;SDS011;5220;43.192;23.284;2024-03-07T03:55:08;31.45;;;25.17;;
10347;SDS011;5220;43.192;23.284;2024-03-07T03:57:37;33.08;;;25.52;;
10347;SDS011;5220;43.192;23.284;2024-03-07T04:00:05;34.15;;;27.27;;
10347;SDS011;5220;43.192;23.284;2024-03-07T04:02:37;29.85;;;23.35;;
10347;SDS011;5220;43.192;23.284;2024-03-07T04:05:06;29.98;;;23.33;;
10347;SDS011;5220;43.192;23.284;2024-03-07T04:07:34;36.78;;;22.45;;
10347;SDS011;5220;43.192;23.284;2024-03-07T04:10:01;30.17;;;22.33;;
10347;SDS011;5220;43.192;23.284;2024-03-07T04:12:29;28.08;;;21.88;;
10347;SDS011;5220;43.192;23.284;2024-03-07T04:14:55;28.25;;;22.05;;
10347;SDS011;5220;43.192;23.284;2024-03-07T04:17:22;27.85;;;22.55;;
10347;SDS011;5220;43.192;23.284;2024-03-07T04:19:50;28.45;;;23.95;;
10347;SDS011;5220;43.192;23.284;2024-03-07T04:22:18;28.58;;;23.17;;
10347;SDS011;5220;43.192;23.284;2024-03-07T04:24:45;26.67;;;20.75;;
10347;SDS011;5220;43.192;23.284;2024-03-07T04:27:13;24.45;;;20.67;;
10347;SDS011;5220;43.192;23.284;2024-03-07T04:29:41;26.42;;;20.17;;
10347;SDS011;5220;43.192;23.284;2024-03-07T04:32:07;76.55;;;24.20;;
10347;SDS011;5220;43.192;23.284;2024-03-07T04:34:34;144.35;;;26.25;;
10347;SDS011;5220;43.192;23.284;2024-03-07T04:37:01;38.70;;;22.35;;
10347;SDS011;5220;43.192;23.284;2024-03-07T04:39:30;42.15;;;21.63;;
10347;SDS011;5220;43.192;23.284;2024-03-07T04:41:58;78.47;;;25.67;;
10347;SDS011;5220;43.192;23.284;2024-03-07T04:44:26;38.33;;;23.15;;
10347;SDS011;5220;43.192;23.284;2024-03-07T04:46:53;41.25;;;25.92;;
10347;SDS011;5220;43.192;23.284;2024-03-07T04:49:21;44.90;;;28.73;;
10347;SDS011;5220;43.192;23.284;2024-03-07T04:51:49;38.25;;;25.00;;
10347;SDS011;5220;43.192;23.284;2024-03-07T04:54:17;49.15;;;31.65;;
10347;SDS011;5220;43.192;23.284;2024-03-07T04:56:45;50.92;;;30.67;;
10347;SDS011;5220;43.192;23.284;2024-03-07T04:59:12;43.70;;;29.58;;
10347;SDS011;5220;43.192;23.284;2024-03-07T05:01:38;39.53;;;26.58;;
10347;SDS011;5220;43.192;23.284;2024-03-07T05:04:05;40.38;;;27.67;;
10347;SDS011;5220;43.192;23.284;2024-03-07T05:06:32;38.63;;;27.50;;
10347;SDS011;5220;43.192;23.284;2024-03-07T05:08:59;41.20;;;28.20;;
10347;SDS011;5220;43.192;23.284;2024-03-07T05:11:28;47.28;;;27.40;;
10347;SDS011;5220;43.192;23.284;2024-03-07T05:13:56;40.20;;;28.02;;
10347;SDS011;5220;43.192;23.284;2024-03-07T05:16:23;43.65;;;28.60;;
10347;SDS011;5220;43.192;23.284;2024-03-07T05:18:51;41.88;;;28.80;;
10347;SDS011;5220;43.192;23.284;2024-03-07T05:21:18;41.80;;;29.05;;
10347;SDS011;5220;43.192;23.284;2024-03-07T05:24:03;36.10;;;26.70;;
10347;SDS011;5220;43.192;23.284;2024-03-07T05:26:31;50.15;;;35.47;;
10347;SDS011;5220;43.192;23.284;2024-03-07T05:29:02;51.95;;;34.97;;
10347;SDS011;5220;43.192;23.284;2024-03-07T05:31:32;68.65;;;41.55;;
10347;SDS011;5220;43.192;23.284;2024-03-07T05:34:00;51.60;;;34.00;;
10347;SDS011;5220;43.192;23.284;2024-03-07T05:36:29;42.05;;;28.30;;
10347;SDS011;5220;43.192;23.284;2024-03-07T05:38:57;35.40;;;25.88;;
10347;SDS011;5220;43.192;23.284;2024-03-07T05:41:24;31.10;;;23.08;;
10347;SDS011;5220;43.192;23.284;2024-03-07T05:43:54;30.25;;;23.10;;
10347;SDS011;5220;43.192;23.284;2024-03-07T05:46:23;30.10;;;23.85;;
10347;SDS011;5220;43.192;23.284;2024-03-07T05:48:49;33.10;;;24.20;;
10347;SDS011;5220;43.192;23.284;2024-03-07T05:51:20;37.30;;;26.55;;
10347;SDS011;5220;43.192;23.284;2024-03-07T05:53:47;31.63;;;24.05;;
10347;SDS011;5220;43.192;23.284;2024-03-07T05:56:14;29.63;;;22.73;;
10347;SDS011;5220;43.192;23.284;2024-03-07T05:58:40;26.08;;;20.88;;
10347;SDS011;5220;43.192;23.284;2024-03-07T06:01:07;26.55;;;21.17;;
10347;SDS011;5220;43.192;23.284;2024-03-07T06:03:36;26.75;;;20.58;;
10347;SDS011;5220;43.192;23.284;2024-03-07T06:06:04;27.20;;;23.45;;
10347;SDS011;5220;43.192;23.284;2024-03-07T06:08:31;23.95;;;19.88;;
10347;SDS011;5220;43.192;23.284;2024-03-07T06:10:59;21.80;;;16.95;;
10347;SDS011;5220;43.192;23.284;2024-03-07T06:13:25;22.25;;;18.73;;
10347;SDS011;5220;43.192;23.284;2024-03-07T06:15:52;22.05;;;17.88;;
10347;SDS011;5220;43.192;23.284;2024-03-07T06:18:19;19.85;;;16.75;;
10347;SDS011;5220;43.192;23.284;2024-03-07T06:20:47;18.35;;;15.02;;
10347;SDS011;5220;43.192;23.284;2024-03-07T06:23:14;20.65;;;17.75;;
10347;SDS011;5220;43.192;23.284;2024-03-07T06:25:41;22.98;;;17.88;;
10347;SDS011;5220;43.192;23.284;2024-03-07T06:28:15;23.23;;;18.50;;
10347;SDS011;5220;43.192;23.284;2024-03-07T06:30:44;23.50;;;19.38;;
10347;SDS011;5220;43.192;23.284;2024-03-07T06:33:11;23.77;;;18.55;;
10347;SDS011;5220;43.192;23.284;2024-03-07T06:35:39;23.33;;;18.45;;
10347;SDS011;5220;43.192;23.284;2024-03-07T06:38:08;24.17;;;17.10;;
10347;SDS011;5220;43.192;23.284;2024-03-07T06:40:35;21.35;;;17.33;;
10347;SDS011;5220;43.192;23.284;2024-03-07T06:43:02;24.85;;;18.70;;
10347;SDS011;5220;43.192;23.284;2024-03-07T06:45:31;31.83;;;20.13;;
10347;SDS011;5220;43.192;23.284;2024-03-07T06:47:59;31.10;;;19.20;;
10347;SDS011;5220;43.192;23.284;2024-03-07T06:50:25;30.63;;;23.10;;
10347;SDS011;5220;43.192;23.284;2024-03-07T06:52:54;30.80;;;21.58;;
10347;SDS011;5220;43.192;23.284;2024-03-07T06:55:22;35.13;;;20.75;;
10347;SDS011;5220;43.192;23.284;2024-03-07T06:57:48;29.77;;;22.17;;
10347;SDS011;5220;43.192;23.284;2024-03-07T07:00:15;40.33;;;24.42;;
10347;SDS011;5220;43.192;23.284;2024-03-07T07:02:44;29.08;;;22.55;;
10347;SDS011;5220;43.192;23.284;2024-03-07T07:05:11;29.77;;;21.73;;
10347;SDS011;5220;43.192;23.284;2024-03-07T07:07:40;26.67;;;20.13;;
10347;SDS011;5220;43.192;23.284;2024-03-07T07:10:08;23.33;;;19.17;;
10347;SDS011;5220;43.192;23.284;2024-03-07T07:12:42;24.50;;;19.08;;
10347;SDS011;5220;43.192;23.284;2024-03-07T07:15:09;19.75;;;16.95;;
10347;SDS011;5220;43.192;23.284;2024-03-07T07:17:36;26.13;;;21.05;;
10347;SDS011;5220;43.192;23.284;2024-03-07T07:20:03;27.45;;;22.90;;
10347;SDS011;5220;43.192;23.284;2024-03-07T07:22:35;26.75;;;20.20;;
10347;SDS011;5220;43.192;23.284;2024-03-07T07:25:02;28.10;;;22.05;;
10347;SDS011;5220;43.192;23.284;2024-03-07T07:27:30;59.78;;;42.40;;
10347;SDS011;5220;43.192;23.284;2024-03-07T07:29:58;38.58;;;29.90;;
10347;SDS011;5220;43.192;23.284;2024-03-07T07:32:24;28.25;;;23.10;;
10347;SDS011;5220;43.192;23.284;2024-03-07T07:34:52;20.13;;;16.58;;
10347;SDS011;5220;43.192;23.284;2024-03-07T07:37:19;22.35;;;19.00;;
10347;SDS011;5220;43.192;23.284;2024-03-07T07:39:46;20.92;;;17.15;;
10347;SDS011;5220;43.192;23.284;2024-03-07T07:42:12;24.08;;;18.50;;
10347;SDS011;5220;43.192;23.284;2024-03-07T07:44:39;24.48;;;19.50;;
10347;SDS011;5220;43.192;23.284;2024-03-07T07:47:09;24.42;;;18.70;;
10347;SDS011;5220;43.192;23.284;2024-03-07T07:49:37;23.02;;;17.98;;
10347;SDS011;5220;43.192;23.284;2024-03-07T07:52:04;25.00;;;19.65;;
10347;SDS011;5220;43.192;23.284;2024-03-07T07:54:32;25.35;;;19.35;;
10347;SDS011;5220;43.192;23.284;2024-03-07T07:56:59;21.98;;;17.38;;
10347;SDS011;5220;43.192;23.284;2024-03-07T07:59:25;28.38;;;19.63;;
10347;SDS011;5220;43.192;23.284;2024-03-07T08:01:52;21.67;;;16.25;;
10347;SDS011;5220;43.192;23.284;2024-03-07T08:04:22;21.40;;;17.58;;
10347;SDS011;5220;43.192;23.284;2024-03-07T08:06:48;24.60;;;18.90;;
10347;SDS011;5220;43.192;23.284;2024-03-07T08:09:16;22.80;;;18.63;;
10347;SDS011;5220;43.192;23.284;2024-03-07T08:11:43;24.05;;;17.25;;
10347;SDS011;5220;43.192;23.284;2024-03-07T08:14:10;23.25;;;18.35;;
10347;SDS011;5220;43.192;23.284;2024-03-07T08:16:37;22.75;;;18.73;;
10347;SDS011;5220;43.192;23.284;2024-03-07T08:19:04;22.92;;;18.52;;
10347;SDS011;5220;43.192;23.284;2024-03-07T08:21:33;26.00;;;19.27;;
10347;SDS011;5220;43.192;23.284;2024-03-07T08:23:59;28.33;;;22.88;;
10347;SDS011;5220;43.192;23.284;2024-03-07T08:26:28;27.95;;;21.35;;
10347;SDS011;5220;43.192;23.284;2024-03-07T08:28:55;29.75;;;22.25;;
10347;SDS011;5220;43.192;23.284;2024-03-07T08:31:23;25.10;;;20.38;;
10347;SDS011;5220;43.192;23.284;2024-03-07T08:33:51;22.88;;;16.65;;
10347;SDS011;5220;43.192;23.284;2024-03-07T08:36:19;24.98;;;17.95;;
10347;SDS011;5220;43.192;23.284;2024-03-07T08:38:47;31.35;;;22.38;;
10347;SDS011;5220;43.192;23.284;2024-03-07T08:41:13;32.10;;;22.38;;
10347;SDS011;5220;43.192;23.284;2024-03-07T08:43:40;34.25;;;23.02;;
10347;SDS011;5220;43.192;23.284;2024-03-07T08:46:07;33.85;;;23.75;;
10347;SDS011;5220;43.192;23.284;2024-03-07T08:48:34;33.70;;;23.67;;
10347;SDS011;5220;43.192;23.284;2024-03-07T08:51:02;31.08;;;22.95;;
10347;SDS011;5220;43.192;23.284;2024-03-07T08:53:29;33.50;;;23.13;;
10347;SDS011;5220;43.192;23.284;2024-03-07T08:55:57;34.25;;;21.90;;
10347;SDS011;5220;43.192;23.284;2024-03-07T08:58:26;68.88;;;25.38;;
10347;SDS011;5220;43.192;23.284;2024-03-07T09:00:53;55.78;;;24.30;;
10347;SDS011;5220;43.192;23.284;2024-03-07T09:03:20;40.45;;;23.20;;
10347;SDS011;5220;43.192;23.284;2024-03-07T09:05:47;48.17;;;26.55;;
10347;SDS011;5220;43.192;23.284;2024-03-07T09:08:13;43.38;;;27.65;;
10347;SDS011;5220;43.192;23.284;2024-03-07T09:10:40;72.18;;;28.23;;
10347;SDS011;5220;43.192;23.284;2024-03-07T09:13:09;70.53;;;29.30;;
10347;SDS011;5220;43.192;23.284;2024-03-07T09:15:36;44.83;;;28.95;;
10347;SDS011;5220;43.192;23.284;2024-03-07T09:18:03;48.20;;;26.60;;
10347;SDS011;5220;43.192;23.284;2024-03-07T09:20:31;44.45;;;28.33;;
10347;SDS011;5220;43.192;23.284;2024-03-07T09:22:57;47.88;;;29.65;;
10347;SDS011;5220;43.192;23.284;2024-03-07T09:25:25;45.50;;;29.27;;
10347;SDS011;5220;43.192;23.284;2024-03-07T09:27:52;48.10;;;31.00;;
10347;SDS011;5220;43.192;23.284;2024-03-07T09:30:20;48.15;;;27.88;;
10347;SDS011;5220;43.192;23.284;2024-03-07T09:32:50;50.38;;;27.98;;
10347;SDS011;5220;43.192;23.284;2024-03-07T09:35:17;52.17;;;25.38;;
10347;SDS011;5220;43.192;23.284;2024-03-07T09:37:43;45.08;;;26.17;;
10347;SDS011;5220;43.192;23.284;2024-03-07T09:40:10;50.45;;;29.70;;
10347;SDS011;5220;43.192;23.284;2024-03-07T09:42:41;46.88;;;29.00;;
10347;SDS011;5220;43.192;23.284;2024-03-07T09:45:12;50.08;;;28.42;;
10347;SDS011;5220;43.192;23.284;2024-03-07T09:47:42;39.65;;;24.33;;
10347;SDS011;5220;43.192;23.284;2024-03-07T09:50:11;50.20;;;26.08;;
10347;SDS011;5220;43.192;23.284;2024-03-07T09:52:39;44.72;;;23.00;;
10347;SDS011;5220;43.192;23.284;2024-03-07T09:55:08;49.00;;;28.52;;
10347;SDS011;5220;43.192;23.284;2024-03-07T09:57:34;45.40;;;26.35;;
10347;SDS011;5220;43.192;23.284;2024-03-07T10:00:02;92.78;;;25.38;;
10347;SDS011;5220;43.192;23.284;2024-03-07T10:02:31;57.60;;;24.83;;
10347;SDS011;5220;43.192;23.284;2024-03-07T10:05:04;52.53;;;28.98;;
10347;SDS011;5220;43.192;23.284;2024-03-07T10:07:33;39.05;;;23.95;;
10347;SDS011;5220;43.192;23.284;2024-03-07T10:10:01;37.65;;;23.92;;
10347;SDS011;5220;43.192;23.284;2024-03-07T10:12:35;35.78;;;22.30;;
10347;SDS011;5220;43.192;23.284;2024-03-07T10:15:03;45.50;;;28.33;;
10347;SDS011;5220;43.192;23.284;2024-03-07T10:17:31;40.30;;;26.55;;
10347;SDS011;5220;43.192;23.284;2024-03-07T10:19:58;63.67;;;36.67;;
10347;SDS011;5220;43.192;23.284;2024-03-07T10:22:27;60.78;;;33.17;;
10347;SDS011;5220;43.192;23.284;2024-03-07T10:24:55;41.08;;;25.67;;
10347;SDS011;5220;43.192;23.284;2024-03-07T10:27:22;38.63;;;25.80;;
10347;SDS011;5220;43.192;23.284;2024-03-07T10:29:51;38.10;;;24.65;;
10347;SDS011;5220;43.192;23.284;2024-03-07T10:32:19;42.92;;;28.30;;
10347;SDS011;5220;43.192;23.284;2024-03-07T10:34:46;38.50;;;26.55;;
10347;SDS011;5220;43.192;23.284;2024-03-07T10:37:13;39.28;;;29.25;;
10347;SDS011;5220;43.192;23.284;2024-03-07T10:39:43;40.28;;;28.80;;
10347;SDS011;5220;43.192;23.284;2024-03-07T10:42:12;50.35;;;34.80;;
10347;SDS011;5220;43.192;23.284;2024-03-07T10:44:42;37.85;;;27.48;;
10347;SDS011;5220;43.192;23.284;2024-03-07T10:47:11;39.78;;;26.90;;
10347;SDS011;5220;43.192;23.284;2024-03-07T10:49:46;36.80;;;25.52;;
10347;SDS011;5220;43.192;23.284;2024-03-07T10:52:25;38.83;;;26.13;;
10347;SDS011;5220;43.192;23.284;2024-03-07T10:55:00;32.90;;;23.98;;
10347;SDS011;5220;43.192;23.284;2024-03-07T10:57:37;26.30;;;21.92;;
10347;SDS011;5220;43.192;23.284;2024-03-07T11:00:13;31.58;;;21.17;;
10347;SDS011;5220;43.192;23.284;2024-03-07T11:02:55;30.27;;;22.80;;
10347;SDS011;5220;43.192;23.284;2024-03-07T11:05:24;34.08;;;25.55;;
10347;SDS011;5220;43.192;23.284;2024-03-07T11:07:55;23.48;;;17.30;;
10347;SDS011;5220;43.192;23.284;2024-03-07T11:10:25;29.90;;;20.80;;
10347;SDS011;5220;43.192;23.284;2024-03-07T11:12:52;22.55;;;16.83;;
10347;SDS011;5220;43.192;23.284;2024-03-07T11:15:20;25.17;;;18.15;;
10347;SDS011;5220;43.192;23.284;2024-03-07T11:17:51;25.40;;;19.30;;
10347;SDS011;5220;43.192;23.284;2024-03-07T11:20:19;25.95;;;20.75;;
10347;SDS011;5220;43.192;23.284;2024-03-07T11:22:47;22.23;;;15.18;;
10347;SDS011;5220;43.192;23.284;2024-03-07T11:25:16;19.48;;;15.60;;
10347;SDS011;5220;43.192;23.284;2024-03-07T11:27:51;19.73;;;16.40;;
10347;SDS011;5220;43.192;23.284;2024-03-07T11:30:21;20.40;;;15.20;;
10347;SDS011;5220;43.192;23.284;2024-03-07T11:32:48;19.52;;;15.35;;
10347;SDS011;5220;43.192;23.284;2024-03-07T11:35:18;23.45;;;20.48;;
10347;SDS011;5220;43.192;23.284;2024-03-07T11:37:50;26.90;;;20.27;;
10347;SDS011;5220;43.192;23.284;2024-03-07T11:43:15;18.48;;;14.75;;
10347;SDS011;5220;43.192;23.284;2024-03-07T11:45:42;17.42;;;12.95;;
10347;SDS011;5220;43.192;23.284;2024-03-07T11:48:17;17.63;;;12.13;;
10347;SDS011;5220;43.192;23.284;2024-03-07T11:50:45;17.30;;;14.38;;
10347;SDS011;5220;43.192;23.284;2024-03-07T11:53:14;12.32;;;10.38;;
10347;SDS011;5220;43.192;23.284;2024-03-07T11:55:41;16.80;;;13.43;;
10347;SDS011;5220;43.192;23.284;2024-03-07T11:58:10;18.15;;;14.57;;
10347;SDS011;5220;43.192;23.284;2024-03-07T12:00:41;14.27;;;11.15;;
10347;SDS011;5220;43.192;23.284;2024-03-07T12:03:10;17.25;;;13.13;;
10347;SDS011;5220;43.192;23.284;2024-03-07T12:05:39;18.67;;;14.52;;
10347;SDS011;5220;43.192;23.284;2024-03-07T12:08:06;19.58;;;13.23;;
10347;SDS011;5220;43.192;23.284;2024-03-07T12:10:34;12.77;;;10.63;;
10347;SDS011;5220;43.192;23.284;2024-03-07T12:13:04;14.23;;;10.98;;
10347;SDS011;5220;43.192;23.284;2024-03-07T12:15:32;18.00;;;13.88;;
10347;SDS011;5220;43.192;23.284;2024-03-07T12:18:01;17.70;;;14.20;;
10347;SDS011;5220;43.192;23.284;2024-03-07T12:20:34;22.95;;;15.70;;
10347;SDS011;5220;43.192;23.284;2024-03-07T12:23:03;16.67;;;13.73;;
10347;SDS011;5220;43.192;23.284;2024-03-07T12:25:33;19.27;;;15.75;;
10347;SDS011;5220;43.192;23.284;2024-03-07T12:28:04;23.42;;;16.80;;
10347;SDS011;5220;43.192;23.284;2024-03-07T12:30:36;19.48;;;14.73;;
10347;SDS011;5220;43.192;23.284;2024-03-07T12:33:16;17.65;;;12.98;;
10347;SDS011;5220;43.192;23.284;2024-03-07T12:35:44;16.75;;;12.40;;
10347;SDS011;5220;43.192;23.284;2024-03-07T12:38:12;13.80;;;10.77;;
10347;SDS011;5220;43.192;23.284;2024-03-07T12:40:41;25.15;;;18.98;;
10347;SDS011;5220;43.192;23.284;2024-03-07T12:43:14;18.52;;;13.68;;
10347;SDS011;5220;43.192;23.284;2024-03-07T12:45:47;26.25;;;17.92;;
10347;SDS011;5220;43.192;23.284;2024-03-07T12:48:16;19.08;;;14.13;;
10347;SDS011;5220;43.192;23.284;2024-03-07T12:50:45;22.23;;;15.75;;
10347;SDS011;5220;43.192;23.284;2024-03-07T12:53:15;19.35;;;15.02;;
10347;SDS011;5220;43.192;23.284;2024-03-07T12:55:43;19.05;;;14.15;;
10347;SDS011;5220;43.192;23.284;2024-03-07T12:58:10;18.33;;;12.90;;
10347;SDS011;5220;43.192;23.284;2024-03-07T13:00:38;17.88;;;14.13;;
10347;SDS011;5220;43.192;23.284;2024-03-07T13:03:06;19.98;;;14.95;;
10347;SDS011;5220;43.192;23.284;2024-03-07T13:05:35;18.52;;;14.75;;
10347;SDS011;5220;43.192;23.284;2024-03-07T13:08:05;24.45;;;18.35;;
10347;SDS011;5220;43.192;23.284;2024-03-07T13:10:34;19.70;;;15.07;;
10347;SDS011;5220;43.192;23.284;2024-03-07T13:13:02;37.88;;;25.83;;
10347;SDS011;5220;43.192;23.284;2024-03-07T13:15:29;37.60;;;26.83;;
10347;SDS011;5220;43.192;23.284;2024-03-07T13:17:56;26.33;;;21.63;;
10347;SDS011;5220;43.192;23.284;2024-03-07T13:20:23;24.65;;;18.20;;
10347;SDS011;5220;43.192;23.284;2024-03-07T13:22:52;30.25;;;19.30;;
10347;SDS011;5220;43.192;23.284;2024-03-07T13:25:21;21.90;;;17.55;;
10347;SDS011;5220;43.192;23.284;2024-03-07T13:27:54;16.58;;;12.73;;
10347;SDS011;5220;43.192;23.284;2024-03-07T13:30:24;14.98;;;12.25;;
10347;SDS011;5220;43.192;23.284;2024-03-07T13:32:53;15.95;;;13.38;;
10347;SDS011;5220;43.192;23.284;2024-03-07T13:35:21;19.42;;;15.88;;
10347;SDS011;5220;43.192;23.284;2024-03-07T13:37:49;14.30;;;11.32;;
10347;SDS011;5220;43.192;23.284;2024-03-07T13:40:17;21.30;;;16.17;;
10347;SDS011;5220;43.192;23.284;2024-03-07T13:42:50;17.75;;;15.10;;
10347;SDS011;5220;43.192;23.284;2024-03-07T13:45:19;14.65;;;13.00;;
10347;SDS011;5220;43.192;23.284;2024-03-07T13:47:47;15.93;;;14.10;;
10347;SDS011;5220;43.192;23.284;2024-03-07T13:50:15;15.38;;;13.75;;
10347;SDS011;5220;43.192;23.284;2024-03-07T13:52:44;15.48;;;12.45;;
10347;SDS011;5220;43.192;23.284;2024-03-07T13:55:31;17.33;;;14.27;;
10347;SDS011;5220;43.192;23.284;2024-03-07T13:58:01;14.82;;;12.98;;
10347;SDS011;5220;43.192;23.284;2024-03-07T14:00:41;15.13;;;13.00;;
10347;SDS011;5220;43.192;23.284;2024-03-07T14:03:29;16.65;;;12.85;;
10347;SDS011;5220;43.192;23.284;2024-03-07T14:06:12;13.52;;;10.85;;
10347;SDS011;5220;43.192;23.284;2024-03-07T14:12:17;16.95;;;11.88;;
10347;SDS011;5220;43.192;23.284;2024-03-07T14:15:06;15.00;;;13.40;;
10347;SDS011;5220;43.192;23.284;2024-03-07T14:21:31;17.80;;;12.30;;
10347;SDS011;5220;43.192;23.284;2024-03-07T14:24:25;16.10;;;12.10;;
10347;SDS011;5220;43.192;23.284;2024-03-07T14:29:55;14.02;;;10.75;;
10347;SDS011;5220;43.192;23.284;2024-03-07T14:32:37;12.38;;;9.90;;
10347;SDS011;5220;43.192;23.284;2024-03-07T14:35:08;14.07;;;10.60;;
10347;SDS011;5220;43.192;23.284;2024-03-07T14:37:45;16.40;;;14.02;;
10347;SDS011;5220;43.192;23.284;2024-03-07T14:40:16;19.80;;;15.05;;
10347;SDS011;5220;43.192;23.284;2024-03-07T14:42:46;19.52;;;14.40;;